createdAt,value
2023-03-12T00:00:50.272Z,1.81
2023-03-12T00:03:50.318Z,1.98
2023-03-12T00:06:50.262Z,1.80
2023-03-12T00:09:52.251Z,1.84
2023-03-12T00:12:52.311Z,1.86
2023-03-12T00:15:53.311Z,1.87
2023-03-12T00:18:53.306Z,1.94
2023-03-12T00:21:53.249Z,1.90
2023-03-12T00:24:53.312Z,1.89
2023-03-12T00:27:53.298Z,1.80
2023-03-12T00:30:55.334Z,1.86
2023-03-12T00:33:49.280Z,1.77
2023-03-12T00:36:38.239Z,1.76
2023-03-12T00:39:38.260Z,1.74
2023-03-12T00:42:38.271Z,1.70
2023-03-12T00:45:38.293Z,1.60
2023-03-12T00:48:38.262Z,1.65
2023-03-12T00:51:38.272Z,1.58
2023-03-12T00:54:38.279Z,1.51
2023-03-12T00:57:38.268Z,1.34
2023-03-12T01:00:38.265Z,1.33
2023-03-12T01:03:38.409Z,1.16
2023-03-12T01:06:38.257Z,1.08
2023-03-12T01:09:38.298Z,1.02
2023-03-12T01:12:38.259Z,0.91
2023-03-12T01:15:38.244Z,0.83
2023-03-12T01:18:38.298Z,0.76
2023-03-12T01:21:38.284Z,0.72
2023-03-12T01:24:38.269Z,0.45
2023-03-12T01:27:38.252Z,0.41
2023-03-12T01:30:38.268Z,0.50
2023-03-12T01:33:38.284Z,0.42
2023-03-12T01:36:41.299Z,0.28
2023-03-12T01:39:41.251Z,0.26
2023-03-12T01:42:41.298Z,0.16
2023-03-12T01:46:15.384Z,-0.02
2023-03-12T01:49:25.262Z,0.00
2023-03-12T01:52:42.276Z,-0.12
2023-03-12T01:55:42.293Z,-0.23
2023-03-12T01:58:42.276Z,-0.40
2023-03-12T02:01:42.260Z,-0.35
2023-03-12T02:04:42.231Z,-0.43
2023-03-12T02:07:42.298Z,-0.45
2023-03-12T02:10:42.287Z,-0.42
2023-03-12T02:13:42.276Z,-0.42
2023-03-12T02:16:42.282Z,-0.41
2023-03-12T02:20:01.262Z,-0.37
2023-03-12T02:23:16.270Z,-0.40
2023-03-12T02:26:18.233Z,-0.36
2023-03-12T02:29:18.290Z,-0.34
2023-03-12T02:32:19.335Z,-0.51
2023-03-12T02:35:20.293Z,-0.55
2023-03-12T02:38:40.263Z,-0.53
2023-03-12T02:41:43.282Z,-0.70
2023-03-12T02:44:47.238Z,-0.73
2023-03-12T02:47:47.242Z,-0.83
2023-03-12T02:50:47.277Z,-0.85
2023-03-12T02:53:47.272Z,-0.91
2023-03-12T02:56:47.239Z,-0.89
2023-03-12T02:59:47.240Z,-1.11
2023-03-12T03:02:47.248Z,-0.92
2023-03-12T03:05:47.273Z,-0.91
2023-03-12T03:08:47.281Z,-0.92
2023-03-12T03:11:47.245Z,-0.99
2023-03-12T03:14:47.285Z,-1.15
2023-03-12T03:17:47.231Z,-1.29
2023-03-12T03:20:47.288Z,-1.30
2023-03-12T03:23:48.262Z,-1.33
2023-03-12T03:26:48.287Z,-1.40
2023-03-12T03:32:49.316Z,-1.46
2023-03-12T03:35:49.302Z,-1.47
2023-03-12T03:38:49.259Z,-1.55
2023-03-12T03:41:49.275Z,-1.68
2023-03-12T03:44:50.266Z,-1.76
2023-03-12T03:47:50.277Z,-1.75
2023-03-12T03:50:51.228Z,-1.80
2023-03-12T03:53:51.261Z,-1.80
2023-03-12T03:56:51.229Z,-1.87
2023-03-12T03:59:51.243Z,-2.11
2023-03-12T04:02:51.237Z,-1.93
2023-03-12T04:05:52.301Z,-1.94
2023-03-12T04:08:52.379Z,-2.00
2023-03-12T04:11:52.299Z,-1.91
2023-03-12T04:14:49.259Z,-1.85
2023-03-12T04:17:49.268Z,-1.89
2023-03-12T04:20:49.231Z,-1.87
2023-03-12T04:23:50.222Z,-2.02
2023-03-12T04:26:50.240Z,-2.15
2023-03-12T04:29:50.271Z,-2.11
2023-03-12T04:32:50.261Z,-2.05
2023-03-12T04:35:50.270Z,-2.06
2023-03-12T04:38:50.236Z,-2.12
2023-03-12T04:41:52.231Z,-2.14
2023-03-12T04:44:52.256Z,-2.18
2023-03-12T04:47:52.276Z,-2.15
2023-03-12T04:50:52.245Z,-2.26
2023-03-12T04:53:52.265Z,-2.29
2023-03-12T04:56:52.216Z,-2.37
2023-03-12T04:59:52.268Z,-2.39
2023-03-12T05:02:53.307Z,-2.37
2023-03-12T05:05:53.283Z,-2.19
2023-03-12T05:08:53.254Z,-2.00
2023-03-12T05:11:46.239Z,-2.00
2023-03-12T05:14:33.260Z,-1.92
2023-03-12T05:17:34.286Z,-2.06
2023-03-12T05:20:35.248Z,-1.74
2023-03-12T05:23:36.288Z,-1.77
2023-03-12T05:26:42.307Z,-1.68
2023-03-12T05:29:42.283Z,-1.63
2023-03-12T05:32:42.324Z,-1.58
2023-03-12T05:35:42.250Z,-1.53
2023-03-12T05:38:42.231Z,-1.51
2023-03-12T05:41:43.259Z,-1.57
2023-03-12T05:44:43.267Z,-1.26
2023-03-12T05:47:43.237Z,-1.17
2023-03-12T05:50:44.240Z,-1.00
2023-03-12T05:53:44.230Z,-0.77
2023-03-12T05:56:44.280Z,-0.55
2023-03-12T05:59:46.265Z,-0.12
2023-03-12T06:02:46.278Z,0.21
2023-03-12T06:05:49.221Z,0.51
2023-03-12T06:08:49.220Z,0.76
2023-03-12T06:11:49.260Z,0.92
2023-03-12T06:14:49.211Z,1.11
2023-03-12T06:17:49.240Z,1.29
2023-03-12T06:20:49.197Z,1.35
2023-03-12T06:23:49.260Z,1.37
2023-03-12T06:26:49.220Z,1.27
2023-03-12T06:29:49.236Z,1.12
2023-03-12T06:32:49.243Z,1.10
2023-03-12T06:35:49.293Z,1.01
2023-03-12T06:38:49.237Z,1.10
2023-03-12T06:41:49.244Z,1.12
2023-03-12T06:44:49.210Z,1.22
2023-03-12T06:47:49.222Z,1.32
2023-03-12T06:50:49.221Z,1.38
2023-03-12T06:53:49.198Z,1.47
2023-03-12T06:56:49.223Z,1.69
2023-03-12T06:59:50.619Z,1.80
2023-03-12T07:02:50.237Z,1.98
2023-03-12T07:05:50.247Z,2.14
2023-03-12T07:08:50.263Z,2.26
2023-03-12T07:11:50.240Z,2.30
2023-03-12T07:14:50.238Z,2.41
2023-03-12T07:17:50.213Z,2.37
2023-03-12T07:20:51.245Z,2.27
2023-03-12T07:23:51.253Z,2.20
2023-03-12T07:26:51.259Z,2.47
2023-03-12T07:29:51.262Z,2.49
2023-03-12T07:32:51.217Z,2.66
2023-03-12T07:35:52.332Z,2.73
2023-03-12T07:38:52.199Z,2.74
2023-03-12T07:41:52.307Z,2.95
2023-03-12T07:44:52.788Z,3.12
2023-03-12T07:47:52.329Z,3.34
2023-03-12T07:50:52.300Z,3.32
2023-03-12T07:53:52.270Z,4.31
2023-03-12T07:56:52.464Z,5.79
2023-03-12T07:59:53.305Z,6.54
2023-03-12T08:02:53.410Z,7.70
2023-03-12T08:05:53.265Z,8.21
2023-03-12T08:08:53.260Z,8.42
2023-03-12T08:11:53.393Z,9.18
2023-03-12T08:14:53.285Z,10.61
2023-03-12T08:17:53.218Z,10.32
2023-03-12T08:20:53.257Z,10.26
2023-03-12T08:23:53.215Z,10.05
2023-03-12T08:26:53.259Z,10.88
2023-03-12T08:29:54.251Z,10.06
2023-03-12T08:32:54.323Z,11.42
2023-03-12T08:35:54.298Z,11.52
2023-03-12T08:38:54.245Z,11.77
2023-03-12T08:41:54.208Z,11.10
2023-03-12T08:44:54.328Z,11.71
2023-03-12T08:47:48.225Z,11.32
2023-03-12T08:50:29.371Z,11.67
2023-03-12T08:53:16.234Z,11.63
2023-03-12T08:55:55.309Z,10.08
2023-03-12T08:58:42.255Z,12.43
2023-03-12T09:01:43.845Z,12.59
2023-03-12T09:04:43.492Z,14.18
2023-03-12T09:07:44.257Z,12.27
2023-03-12T09:10:44.215Z,12.60
2023-03-12T09:14:22.262Z,13.44
2023-03-12T09:17:04.257Z,12.82
2023-03-12T09:20:04.276Z,13.39
2023-03-12T09:23:05.653Z,13.21
2023-03-12T09:26:06.218Z,13.72
2023-03-12T09:29:06.222Z,12.08
2023-03-12T09:32:06.233Z,13.75
2023-03-12T09:35:06.233Z,14.11
2023-03-12T09:38:06.251Z,13.31
2023-03-12T09:41:06.257Z,13.17
2023-03-12T09:44:11.239Z,14.55
2023-03-12T09:47:14.221Z,13.91
2023-03-12T09:50:22.240Z,14.95
2023-03-12T09:53:38.220Z,13.33
2023-03-12T09:56:40.232Z,14.07
2023-03-12T09:59:40.392Z,12.55
2023-03-12T10:02:59.263Z,13.45
2023-03-12T10:06:17.326Z,15.65
2023-03-12T10:09:37.217Z,13.81
2023-03-12T10:13:01.275Z,13.97
2023-03-12T10:16:19.332Z,14.07
2023-03-12T10:19:37.229Z,13.96
2023-03-12T10:23:14.302Z,14.97
2023-03-12T10:26:21.257Z,14.59
2023-03-12T10:29:28.251Z,13.30
2023-03-12T10:32:33.266Z,14.63
2023-03-12T10:35:37.252Z,14.67
2023-03-12T10:38:43.247Z,14.78
2023-03-12T10:41:45.222Z,15.74
2023-03-12T10:44:45.278Z,15.16
2023-03-12T10:47:50.212Z,15.47
2023-03-12T10:50:51.253Z,14.74
2023-03-12T10:54:00.252Z,16.77
2023-03-12T10:57:04.239Z,16.47
2023-03-12T11:00:04.220Z,16.56
2023-03-12T11:03:10.238Z,15.55
2023-03-12T11:06:13.270Z,16.15
2023-03-12T11:09:33.269Z,16.68
2023-03-12T11:12:42.275Z,16.56
2023-03-12T11:15:44.287Z,16.19
2023-03-12T11:18:49.274Z,15.01
2023-03-12T11:21:50.284Z,16.15
2023-03-12T11:24:50.237Z,14.19
2023-03-12T11:27:52.250Z,14.26
2023-03-12T11:30:45.261Z,15.12
2023-03-12T11:33:45.212Z,16.30
2023-03-12T11:36:52.286Z,16.30
2023-03-12T11:40:17.295Z,14.13
2023-03-12T11:43:43.333Z,14.88
2023-03-12T11:47:03.267Z,14.19
2023-03-12T11:50:41.302Z,13.95
2023-03-12T11:53:50.267Z,15.23
2023-03-12T11:56:53.264Z,15.29
2023-03-12T11:59:53.222Z,14.09
2023-03-12T12:03:11.274Z,15.24
2023-03-12T12:06:46.940Z,15.12
2023-03-12T12:09:58.254Z,14.81
2023-03-12T12:13:24.310Z,13.85
2023-03-12T12:16:55.296Z,14.83
2023-03-12T12:20:30.322Z,14.09
2023-03-12T12:23:32.288Z,14.69
2023-03-12T12:26:51.271Z,15.16
2023-03-12T12:30:21.296Z,13.06
2023-03-12T12:33:39.306Z,13.41
2023-03-12T12:36:43.219Z,13.10
2023-03-12T12:39:47.112Z,13.99
2023-03-12T12:42:49.296Z,12.42
2023-03-12T12:45:53.300Z,11.74
2023-03-12T12:49:25.294Z,9.52
2023-03-12T12:52:33.294Z,9.39
2023-03-12T12:55:32.290Z,9.57
2023-03-12T12:58:19.330Z,10.10
2023-03-12T13:01:19.344Z,11.39
2023-03-12T13:04:24.305Z,11.14
2023-03-12T13:07:28.110Z,11.52
2023-03-12T13:10:57.590Z,10.61
2023-03-12T13:14:28.302Z,9.80
2023-03-12T13:17:44.298Z,10.03
2023-03-12T13:21:06.303Z,9.09
2023-03-12T13:24:38.259Z,8.96
2023-03-12T13:27:43.326Z,9.16
2023-03-12T13:30:48.407Z,9.42
2023-03-12T13:34:01.313Z,9.35
2023-03-12T13:37:04.249Z,8.10
2023-03-12T13:40:04.266Z,8.20
2023-03-12T13:43:15.309Z,8.56
2023-03-12T13:46:19.441Z,8.20
2023-03-12T13:49:24.280Z,8.14
2023-03-12T13:52:44.308Z,8.51
2023-03-12T13:55:47.291Z,8.49
2023-03-12T13:58:55.304Z,8.08
2023-03-12T14:01:57.310Z,7.93
2023-03-12T14:04:58.193Z,7.97
2023-03-12T14:08:17.268Z,8.13
2023-03-12T14:11:37.314Z,8.51
2023-03-12T14:14:56.269Z,8.66
2023-03-12T14:17:57.277Z,8.26
2023-03-12T14:21:06.307Z,8.03
2023-03-12T14:24:11.311Z,7.88
2023-03-12T14:27:11.307Z,7.71
2023-03-12T14:30:15.309Z,7.62
2023-03-12T14:33:16.276Z,7.68
2023-03-12T14:37:12.317Z,7.76
2023-03-12T14:40:15.302Z,7.60
2023-03-12T14:43:15.309Z,7.94
2023-03-12T14:46:20.291Z,7.82
2023-03-12T14:49:20.306Z,7.26
2023-03-12T14:52:20.296Z,7.25
2023-03-12T14:55:45.284Z,7.11
2023-03-12T14:58:47.247Z,6.95
2023-03-12T15:01:48.316Z,6.80
2023-03-12T15:04:48.333Z,6.70
2023-03-12T15:07:50.248Z,6.59
2023-03-12T15:10:50.314Z,6.45
2023-03-12T15:13:51.309Z,6.38
2023-03-12T15:16:51.273Z,6.34
2023-03-12T15:19:52.275Z,6.29
2023-03-12T15:22:52.312Z,6.12
2023-03-12T15:25:52.300Z,6.20
2023-03-12T15:28:53.308Z,6.15
2023-03-12T15:31:57.336Z,6.13
2023-03-12T15:34:59.161Z,6.07
2023-03-12T15:38:04.261Z,6.05
2023-03-12T15:41:05.254Z,6.00
2023-03-12T15:44:09.295Z,5.92
2023-03-12T15:47:26.298Z,5.90
2023-03-12T15:50:32.255Z,5.86
2023-03-12T15:53:35.273Z,5.84
2023-03-12T15:56:36.283Z,5.82
2023-03-12T15:59:40.299Z,5.79
2023-03-12T16:02:51.304Z,5.71
2023-03-12T16:05:53.256Z,5.71
2023-03-12T16:08:58.277Z,5.58
2023-03-12T16:11:58.294Z,5.56
2023-03-12T16:14:58.323Z,5.52
2023-03-12T16:17:58.284Z,5.47
2023-03-12T16:20:58.216Z,5.26
2023-03-12T16:23:58.292Z,5.35
2023-03-12T16:27:07.305Z,5.32
2023-03-12T16:30:07.266Z,5.19
2023-03-12T16:33:09.128Z,5.09
2023-03-12T16:36:09.358Z,5.00
2023-03-12T16:39:09.254Z,4.94
2023-03-12T16:42:09.276Z,4.99
2023-03-12T16:45:09.265Z,4.81
2023-03-12T16:48:13.296Z,4.89
2023-03-12T16:51:13.278Z,4.78
2023-03-12T16:54:14.294Z,4.68
2023-03-12T16:57:07.254Z,4.64
2023-03-12T16:59:53.302Z,4.55
2023-03-12T17:02:53.289Z,4.49
2023-03-12T17:05:53.252Z,4.24
2023-03-12T17:08:53.299Z,4.32
2023-03-12T17:11:53.260Z,4.29
2023-03-12T17:14:53.299Z,4.22
2023-03-12T17:17:53.288Z,4.26
2023-03-12T17:20:53.267Z,4.18
2023-03-12T17:23:53.241Z,4.14
2023-03-12T17:26:53.325Z,4.19
2023-03-12T17:29:53.292Z,4.10
2023-03-12T17:32:53.397Z,4.17
2023-03-12T17:35:53.322Z,4.05
2023-03-12T17:38:53.277Z,3.91
2023-03-12T17:41:53.290Z,3.83
2023-03-12T17:44:53.287Z,3.90
2023-03-12T17:47:53.290Z,3.88
2023-03-12T17:50:53.265Z,3.87
2023-03-12T17:53:46.278Z,3.95
2023-03-12T17:56:32.288Z,3.91
2023-03-12T17:59:33.334Z,3.90
2023-03-12T18:02:33.306Z,3.83
2023-03-12T18:05:33.338Z,3.77
2023-03-12T18:08:33.229Z,3.75
2023-03-12T18:11:33.322Z,3.73
2023-03-12T18:14:33.308Z,3.64
2023-03-12T18:17:33.275Z,3.66
2023-03-12T18:20:39.262Z,3.48
2023-03-12T18:23:39.245Z,3.47
2023-03-12T18:26:39.275Z,3.41
2023-03-12T18:29:42.285Z,3.40
2023-03-12T18:32:42.337Z,3.41
2023-03-12T18:35:42.329Z,3.37
2023-03-12T18:38:42.289Z,3.29
2023-03-12T18:41:42.319Z,3.23
2023-03-12T18:44:42.256Z,3.17
2023-03-12T18:47:46.293Z,3.18
2023-03-12T18:50:46.281Z,3.25
2023-03-12T18:53:46.279Z,3.22
2023-03-12T18:56:47.301Z,3.19
2023-03-12T18:59:51.270Z,2.99
2023-03-12T19:02:51.315Z,3.06
2023-03-12T19:05:51.268Z,2.83
2023-03-12T19:08:51.273Z,2.87
2023-03-12T19:11:51.264Z,2.74
2023-03-12T19:14:51.254Z,2.65
2023-03-12T19:17:51.257Z,2.61
2023-03-12T19:20:51.257Z,2.56
2023-03-12T19:23:51.267Z,2.48
2023-03-12T19:26:51.297Z,2.47
2023-03-12T19:29:51.309Z,2.42
2023-03-12T19:32:51.313Z,2.40
2023-03-12T19:35:52.287Z,2.28
2023-03-12T19:38:52.247Z,2.35
2023-03-12T19:41:52.254Z,2.33
2023-03-12T19:44:52.290Z,2.33
2023-03-12T19:47:52.261Z,2.34
2023-03-12T19:50:52.294Z,2.31
2023-03-12T19:53:52.246Z,2.19
2023-03-12T19:56:52.298Z,2.22
2023-03-12T19:59:52.251Z,2.10
2023-03-12T20:02:52.411Z,1.81
2023-03-12T20:05:52.284Z,1.74
2023-03-12T20:08:52.313Z,1.77
2023-03-12T20:11:52.281Z,1.77
2023-03-12T20:14:52.216Z,1.74
2023-03-12T20:17:52.231Z,1.75
2023-03-12T20:20:52.228Z,1.69
2023-03-12T20:23:52.262Z,1.69
2023-03-12T20:26:52.249Z,1.70
2023-03-12T20:29:52.232Z,1.77
2023-03-12T20:32:52.341Z,1.66
2023-03-12T20:35:52.359Z,1.77
2023-03-12T20:38:52.277Z,1.72
2023-03-12T20:41:52.285Z,1.51
2023-03-12T20:44:52.293Z,1.61
2023-03-12T20:47:52.286Z,1.50
2023-03-12T20:50:52.265Z,1.51
2023-03-12T20:53:52.264Z,1.46
2023-03-12T20:56:52.254Z,1.43
2023-03-12T20:59:52.252Z,1.37
2023-03-12T21:02:52.360Z,1.44
2023-03-12T21:05:52.237Z,1.40
2023-03-12T21:08:52.243Z,1.35
2023-03-12T21:11:52.301Z,1.22
2023-03-12T21:14:52.244Z,1.27
2023-03-12T21:17:53.254Z,1.35
2023-03-12T21:20:54.262Z,1.37
2023-03-12T21:23:54.304Z,1.54
2023-03-12T21:26:54.293Z,1.65
2023-03-12T21:29:54.268Z,1.75
2023-03-12T21:32:54.260Z,1.95
2023-03-12T21:36:00.323Z,1.94
2023-03-12T21:39:00.281Z,2.11
2023-03-12T21:42:00.253Z,2.05
2023-03-12T21:45:00.221Z,2.22
2023-03-12T21:48:00.271Z,2.21
2023-03-12T21:50:53.322Z,2.21
2023-03-12T21:53:53.252Z,2.27
2023-03-12T21:56:53.282Z,2.34
2023-03-12T21:59:53.251Z,2.48
2023-03-12T22:02:58.248Z,2.39
2023-03-12T22:06:04.288Z,2.46
2023-03-12T22:09:04.284Z,2.71
2023-03-12T22:12:04.239Z,2.69
2023-03-12T22:15:04.255Z,2.65
2023-03-12T22:18:04.262Z,2.60
2023-03-12T22:21:08.262Z,2.60
2023-03-12T22:24:08.229Z,2.58
2023-03-12T22:27:10.244Z,2.62
2023-03-12T22:30:10.225Z,2.59
2023-03-12T22:33:10.235Z,2.45
2023-03-12T22:36:10.319Z,2.59
2023-03-12T22:39:11.241Z,2.61
2023-03-12T22:42:11.234Z,2.49
2023-03-12T22:45:11.276Z,2.60
2023-03-12T22:48:11.237Z,2.58
2023-03-12T22:51:12.235Z,2.53
2023-03-12T22:54:12.295Z,2.46
2023-03-12T22:57:12.224Z,2.58
2023-03-12T23:00:13.243Z,2.60
2023-03-12T23:03:13.301Z,2.66
2023-03-12T23:06:14.274Z,2.67
2023-03-12T23:09:14.230Z,2.67
2023-03-12T23:12:14.260Z,2.56
2023-03-12T23:15:14.227Z,2.60
2023-03-12T23:18:14.288Z,2.67
2023-03-12T23:21:16.273Z,2.75
2023-03-12T23:24:16.248Z,2.82
2023-03-12T23:27:16.225Z,2.86
2023-03-12T23:30:16.230Z,2.92
2023-03-12T23:33:16.218Z,2.96
2023-03-12T23:36:23.273Z,2.92
2023-03-12T23:39:23.241Z,3.00
2023-03-12T23:42:23.225Z,3.01
2023-03-12T23:45:24.263Z,2.98
2023-03-12T23:48:24.226Z,3.14
2023-03-12T23:51:36.233Z,2.98
2023-03-12T23:54:36.233Z,3.21
2023-03-12T23:57:36.297Z,3.22
